14TA weather

Public forecast

Using degrees Fahrenheit for public forecast. Weather courtesy of forecast.io.

Closest aviation weather report (METAR) to Dean Ranch Airport

Closest report is Boerne Stage Field, 18.5 nm (34.2 km) SW. Retrieved 2020/08/09 08:35 UTC (0 seconds ago):

K5C1 090835Z AUTO 18005KT 10SM CLR 23/22 A3012 RMK AO1

Closest aviation forecast (TAF) to Dean Ranch Airport

Closest forecast is San Antonio International Airport, 22.2 nm (41.1 km) S. Retrieved 2020/08/09 06:30 UTC (2 hours ago):

TAF KSAT 090528Z 0906/1012 15010KT P6SM SCT015 FM090800 17007KT P6SM BKN015 FM091500 17010KT P6SM SCT050 FM092000 16012G22KT P6SM SCT070 FM100800 17010KT P6SM BKN015